Pagina principală
METAR-TAF:

METAR-TAF

Aeroporturi :

Touho, Noua Caledonie

Latitudine: 20-47-25S, longitudine: 165-15-34E, elevație: 3 m

METAR: lipsă

Ora: 22:06 (11:06 UTC)

Prognoză

Raportul a fost făcut în urmă cu 18 ore și 6 de minute, la 17:00 UTC
Prognoză valabilă de la 17 ora 18 UTC la 18 ora 18 UTC
Vânt 15 kt de la Est/Sud-est
Vizibilitate de 10 km sau mai mult
Nori împrăștiați la o înălțime de 2500 picior
Nori împrăștiați la o înălțime de 5000 picior
Probabilitate 40% :
Temporar
de la 17 ora 18 UTC la 17 ora 22 UTC
averse de ploaie
Temporar
de la 18 ora 12 UTC la 18 ora 18 UTC
Nori fragmentați la o înălțime de 1400 picior
averse de ploaie,

TAF: NWWU 171700Z 1718/1818 12015KT 9999 SCT025 SCT050 PROB40 TEMPO 1718/1722 SHRA TEMPO 1812/1818 SHRA BKN014

Observații și prognoze meteo pentru peste 4.000 de aeroporturi (rapoarte METAR și TAF).

Stațiile disponibile sunt reprezentate pe hartă prin puncte galbene și roșii.

Țineți indicatorul mouse-ului pe punctul dorit pentru a vedea denumirea stației.

Apoi, faceți clic pentru a vedea observațiile și prognozele meteorologice.

Pentru a schimba harta: Pentru mărire, faceți clic pe butoanele verzi cu cruce neagră; pentru micșorare, pe butonul verde cu o liniuță; pentru hărți învecinate, pe săgețile verzi.


METAR-TAF: